createdAt,value
2022-12-25T00:02:26.866Z,28.50
2022-12-25T00:04:53.606Z,28.42
2022-12-25T00:07:20.279Z,27.17
2022-12-25T00:09:46.968Z,28.10
2022-12-25T00:12:13.730Z,23.57
2022-12-25T00:14:40.501Z,22.58
2022-12-25T00:17:07.267Z,29.15
2022-12-25T00:19:34.118Z,26.73
2022-12-25T00:22:00.797Z,24.90
2022-12-25T00:24:27.547Z,29.47
2022-12-25T00:26:54.267Z,25.25
2022-12-25T00:29:21.028Z,27.20
2022-12-25T00:31:47.889Z,24.55
2022-12-25T00:34:14.664Z,20.58
2022-12-25T00:36:42.134Z,18.40
2022-12-25T00:39:09.621Z,26.73
2022-12-25T00:41:54.733Z,24.23
2022-12-25T00:44:21.472Z,29.08
2022-12-25T00:46:48.266Z,22.60
2022-12-25T00:49:15.113Z,22.70
2022-12-25T00:51:41.863Z,30.60
2022-12-25T00:54:08.627Z,25.92
2022-12-25T00:56:35.896Z,24.55
2022-12-25T00:59:03.086Z,21.40
2022-12-25T01:01:30.016Z,29.50
2022-12-25T01:03:56.983Z,19.55
2022-12-25T01:06:23.764Z,23.98
2022-12-25T01:09:09.479Z,27.08
2022-12-25T01:11:36.425Z,21.38
2022-12-25T01:14:03.819Z,23.77
2022-12-25T01:16:30.629Z,22.17
2022-12-25T01:18:57.419Z,19.67
2022-12-25T01:21:24.264Z,18.48
2022-12-25T01:23:52.480Z,26.30
2022-12-25T01:26:21.184Z,21.30
2022-12-25T01:28:49.470Z,24.20
2022-12-25T01:31:18.748Z,27.90
2022-12-25T01:33:46.485Z,22.67
2022-12-25T01:36:23.850Z,23.02
2022-12-25T01:38:51.838Z,25.50
2022-12-25T01:41:21.293Z,28.35
2022-12-25T01:44:14.367Z,23.23
2022-12-25T01:46:42.051Z,25.52
2022-12-25T01:49:16.517Z,18.40
2022-12-25T01:52:23.650Z,31.37
2022-12-25T01:54:57.143Z,25.33
2022-12-25T01:57:35.793Z,22.38
2022-12-25T02:00:05.630Z,26.27
2022-12-25T02:02:32.639Z,21.45
2022-12-25T02:05:30.364Z,25.20
2022-12-25T02:08:00.912Z,17.45
2022-12-25T02:10:27.704Z,22.52
2022-12-25T02:12:54.578Z,24.65
2022-12-25T02:15:26.866Z,22.02
2022-12-25T02:17:59.791Z,19.90
2022-12-25T02:20:51.262Z,23.00
2022-12-25T02:23:39.218Z,17.73
2022-12-25T02:26:14.882Z,16.98
2022-12-25T02:29:00.033Z,27.85
2022-12-25T02:31:41.200Z,28.37
2022-12-25T02:34:15.729Z,19.90
2022-12-25T02:36:51.354Z,21.77
2022-12-25T02:39:46.286Z,17.92
2022-12-25T02:42:21.394Z,21.73
2022-12-25T02:45:09.670Z,21.53
2022-12-25T02:47:56.808Z,21.10
2022-12-25T02:50:43.744Z,19.75
2022-12-25T02:53:30.809Z,18.83
2022-12-25T02:56:17.639Z,22.92
2022-12-25T02:59:04.874Z,29.90
2022-12-25T03:01:53.403Z,19.52
2022-12-25T03:04:43.160Z,23.23
2022-12-25T03:07:28.636Z,15.68
2022-12-25T03:10:25.480Z,23.15
2022-12-25T03:12:59.007Z,20.97
2022-12-25T03:15:44.749Z,22.55
2022-12-25T03:18:17.501Z,19.52
2022-12-25T03:21:03.032Z,24.10
2022-12-25T03:23:51.419Z,17.65
2022-12-25T03:26:37.047Z,30.87
2022-12-25T03:29:04.120Z,21.48
2022-12-25T03:31:46.880Z,18.83
2022-12-25T03:34:38.178Z,19.35
2022-12-25T03:37:29.777Z,25.05
2022-12-25T03:40:26.359Z,22.40
2022-12-25T03:43:18.803Z,22.40
2022-12-25T03:46:09.793Z,15.35
2022-12-25T03:48:58.944Z,17.67
2022-12-25T03:51:50.467Z,22.80
2022-12-25T03:54:42.161Z,23.50
2022-12-25T03:57:28.917Z,25.42
2022-12-25T04:00:15.144Z,24.80
2022-12-25T04:03:00.505Z,23.55
2022-12-25T04:05:45.677Z,16.67
2022-12-25T04:08:30.989Z,19.07
2022-12-25T04:11:16.589Z,20.40
2022-12-25T04:14:02.119Z,18.00
2022-12-25T04:16:47.758Z,18.13
2022-12-25T04:19:33.376Z,23.98
2022-12-25T04:22:18.535Z,16.00
2022-12-25T04:25:03.712Z,23.20
2022-12-25T04:27:49.668Z,18.52
2022-12-25T04:30:34.838Z,21.58
2022-12-25T04:33:20.697Z,22.27
2022-12-25T04:36:06.985Z,16.83
2022-12-25T04:38:34.606Z,19.73
2022-12-25T04:41:02.517Z,19.73
2022-12-25T04:43:29.688Z,23.75
2022-12-25T04:45:58.330Z,14.80
2022-12-25T04:48:26.542Z,20.10
2022-12-25T04:50:53.905Z,14.70
2022-12-25T04:53:20.929Z,16.83
2022-12-25T04:55:47.777Z,17.73
2022-12-25T04:58:14.797Z,14.25
2022-12-25T05:00:42.013Z,18.63
2022-12-25T05:03:08.850Z,13.15
2022-12-25T05:05:40.429Z,13.55
2022-12-25T05:08:07.691Z,12.18
2022-12-25T05:10:34.453Z,14.23
2022-12-25T05:13:01.183Z,14.53
2022-12-25T05:15:27.912Z,16.52
2022-12-25T05:17:54.671Z,15.65
2022-12-25T05:20:21.435Z,14.43
2022-12-25T05:22:48.168Z,15.15
2022-12-25T05:25:15.052Z,16.93
2022-12-25T05:27:41.846Z,15.02
2022-12-25T05:30:09.184Z,18.15
2022-12-25T05:32:35.962Z,17.23
2022-12-25T05:35:02.852Z,12.68
2022-12-25T05:37:29.719Z,14.93
2022-12-25T05:39:56.504Z,18.25
2022-12-25T05:42:23.251Z,15.07
2022-12-25T05:44:49.952Z,16.17
2022-12-25T05:47:16.637Z,14.50
2022-12-25T05:49:43.501Z,10.43
2022-12-25T05:52:10.475Z,15.90
2022-12-25T05:54:37.290Z,11.32
2022-12-25T05:57:04.142Z,11.57
2022-12-25T05:59:31.941Z,11.20
2022-12-25T06:01:59.399Z,13.13
2022-12-25T06:04:26.786Z,13.20
2022-12-25T06:06:53.534Z,18.90
2022-12-25T06:09:20.250Z,15.23
2022-12-25T06:11:47.015Z,11.73
2022-12-25T06:14:15.090Z,10.53
2022-12-25T06:16:42.108Z,10.85
2022-12-25T06:19:09.010Z,11.07
2022-12-25T06:21:35.687Z,9.65
2022-12-25T06:24:03.640Z,11.13
2022-12-25T06:26:30.510Z,9.43
2022-12-25T06:28:57.272Z,12.18
2022-12-25T06:31:24.493Z,12.60
2022-12-25T06:33:51.539Z,10.27
2022-12-25T06:36:21.776Z,10.50
2022-12-25T06:38:48.870Z,11.53
2022-12-25T06:41:21.647Z,10.02
2022-12-25T06:43:50.273Z,7.68
2022-12-25T06:46:17.572Z,11.30
2022-12-25T06:48:50.454Z,8.93
2022-12-25T06:51:22.980Z,12.50
2022-12-25T06:53:50.998Z,13.90
2022-12-25T06:56:20.871Z,14.02
2022-12-25T06:58:55.838Z,8.18
2022-12-25T07:01:36.388Z,9.63
2022-12-25T07:04:06.249Z,12.20
2022-12-25T07:06:33.505Z,14.35
2022-12-25T07:09:00.210Z,14.32
2022-12-25T07:11:27.038Z,10.05
2022-12-25T07:13:54.028Z,12.98
2022-12-25T07:16:20.888Z,8.43
2022-12-25T07:18:47.718Z,8.60
2022-12-25T07:21:17.275Z,11.55
2022-12-25T07:23:46.074Z,8.93
2022-12-25T07:26:13.581Z,14.35
2022-12-25T07:28:40.815Z,8.83
2022-12-25T07:31:11.314Z,8.57
2022-12-25T07:33:38.144Z,9.45
2022-12-25T07:36:05.654Z,11.63
2022-12-25T07:38:32.720Z,8.27
2022-12-25T07:40:59.653Z,9.83
2022-12-25T07:43:26.665Z,8.18
2022-12-25T07:45:58.676Z,6.13
2022-12-25T07:48:27.113Z,7.78
2022-12-25T07:51:07.777Z,10.85
2022-12-25T07:53:35.153Z,10.40
2022-12-25T07:56:05.748Z,8.48
2022-12-25T07:58:33.312Z,10.80
2022-12-25T08:01:04.489Z,9.60
2022-12-25T08:03:32.421Z,11.00
2022-12-25T08:06:01.711Z,7.97
2022-12-25T08:08:29.039Z,10.20
2022-12-25T08:10:55.978Z,9.02
2022-12-25T08:13:22.945Z,10.95
2022-12-25T08:15:49.685Z,6.20
2022-12-25T08:18:16.440Z,12.63
2022-12-25T08:20:43.140Z,9.50
2022-12-25T08:23:09.881Z,8.27
2022-12-25T08:25:36.703Z,6.07
2022-12-25T08:28:03.492Z,10.75
2022-12-25T08:30:30.387Z,8.43
2022-12-25T08:32:57.149Z,7.68
2022-12-25T08:35:24.120Z,11.52
2022-12-25T08:37:50.875Z,7.40
2022-12-25T08:40:17.788Z,9.52
2022-12-25T08:42:44.540Z,11.60
2022-12-25T08:45:11.998Z,12.90
2022-12-25T08:47:38.922Z,12.70
2022-12-25T08:50:06.500Z,9.55
2022-12-25T08:52:33.485Z,6.80
2022-12-25T08:55:00.243Z,7.43
2022-12-25T08:57:27.062Z,10.27
2022-12-25T08:59:53.789Z,7.63
2022-12-25T09:02:20.754Z,9.00
2022-12-25T09:04:47.705Z,10.48
2022-12-25T09:07:14.450Z,9.13
2022-12-25T09:09:41.485Z,9.57
2022-12-25T09:12:08.267Z,11.43
2022-12-25T09:14:34.966Z,15.30
2022-12-25T09:17:01.693Z,10.93
2022-12-25T09:19:28.398Z,8.10
2022-12-25T09:21:55.502Z,10.90
2022-12-25T09:24:22.799Z,9.10
2022-12-25T09:26:49.508Z,9.48
2022-12-25T09:29:17.849Z,12.00
2022-12-25T09:31:44.601Z,10.93
2022-12-25T09:34:16.933Z,8.95
2022-12-25T09:36:45.438Z,9.32
2022-12-25T09:39:12.218Z,9.90
2022-12-25T09:42:01.944Z,9.32
2022-12-25T09:44:33.877Z,9.90
2022-12-25T09:47:13.380Z,11.90
2022-12-25T09:49:40.160Z,12.85
2022-12-25T09:52:15.511Z,13.20
2022-12-25T09:55:05.057Z,18.55
2022-12-25T09:57:32.910Z,11.17
2022-12-25T09:59:59.873Z,8.55
2022-12-25T10:03:04.416Z,8.70
2022-12-25T10:05:51.179Z,17.45
2022-12-25T10:08:41.764Z,8.50
2022-12-25T10:11:47.732Z,9.00
2022-12-25T10:14:24.107Z,14.80
2022-12-25T10:17:06.683Z,9.90
2022-12-25T10:19:54.588Z,8.88
2022-12-25T10:22:33.618Z,11.02
2022-12-25T10:25:02.313Z,9.93
2022-12-25T10:27:39.628Z,10.73
2022-12-25T10:30:15.643Z,8.05
2022-12-25T10:32:43.271Z,10.82
2022-12-25T10:35:15.940Z,9.68
2022-12-25T10:37:44.523Z,7.90
2022-12-25T10:40:36.698Z,11.77
2022-12-25T10:43:21.121Z,11.55
2022-12-25T10:45:49.636Z,12.73
2022-12-25T10:48:23.149Z,10.52
2022-12-25T10:50:50.236Z,12.50
2022-12-25T10:53:28.825Z,12.43
2022-12-25T10:56:04.303Z,13.88
2022-12-25T10:58:31.828Z,9.95
2022-12-25T11:01:02.149Z,11.10
2022-12-25T11:03:32.932Z,9.10
2022-12-25T11:06:00.260Z,9.18
2022-12-25T11:08:29.945Z,10.15
2022-12-25T11:10:59.218Z,9.13
2022-12-25T11:13:28.368Z,9.60
2022-12-25T11:16:26.432Z,10.47
2022-12-25T11:18:54.724Z,12.82
2022-12-25T11:21:27.885Z,13.75
2022-12-25T11:24:03.788Z,9.10
2022-12-25T11:26:36.653Z,12.30
2022-12-25T11:29:05.469Z,13.90
2022-12-25T11:31:43.144Z,9.50
2022-12-25T11:34:42.565Z,12.38
2022-12-25T11:37:16.630Z,12.70
2022-12-25T11:39:43.506Z,9.18
2022-12-25T11:42:24.078Z,10.90
2022-12-25T11:45:00.378Z,12.73
2022-12-25T11:47:44.098Z,10.65
2022-12-25T11:50:13.818Z,12.00
2022-12-25T11:52:44.733Z,8.15
2022-12-25T11:55:20.799Z,10.73
2022-12-25T11:57:56.174Z,7.93
2022-12-25T12:00:23.428Z,11.05
2022-12-25T12:03:22.538Z,7.80
2022-12-25T12:05:53.818Z,10.85
2022-12-25T12:08:20.673Z,9.47
2022-12-25T12:11:18.641Z,12.10
2022-12-25T12:14:01.815Z,8.68
2022-12-25T12:16:29.459Z,11.73
2022-12-25T12:18:56.472Z,11.88
2022-12-25T12:21:26.043Z,13.40
2022-12-25T12:24:00.739Z,13.02
2022-12-25T12:26:30.173Z,11.20
2022-12-25T12:28:59.822Z,13.25
2022-12-25T12:31:42.508Z,13.48
2022-12-25T12:34:31.538Z,12.10
2022-12-25T12:37:12.154Z,10.75
2022-12-25T12:39:40.339Z,11.93
2022-12-25T12:42:21.096Z,9.35
2022-12-25T12:44:50.286Z,11.48
2022-12-25T12:47:40.289Z,10.57
2022-12-25T12:50:25.899Z,10.32
2022-12-25T12:52:52.883Z,12.70
2022-12-25T12:55:29.611Z,11.80
2022-12-25T12:58:05.191Z,11.18
2022-12-25T13:01:02.777Z,14.70
2022-12-25T13:03:34.452Z,16.27
2022-12-25T13:06:11.934Z,9.18
2022-12-25T13:09:09.949Z,10.95
2022-12-25T13:11:41.435Z,12.90
2022-12-25T13:14:17.649Z,11.33
2022-12-25T13:16:46.644Z,10.15
2022-12-25T13:19:25.867Z,12.40
2022-12-25T13:21:55.963Z,15.32
2022-12-25T13:24:25.612Z,10.57
2022-12-25T13:26:52.622Z,10.83
2022-12-25T13:29:23.929Z,13.35
2022-12-25T13:31:50.945Z,15.60
2022-12-25T13:34:28.291Z,16.10
2022-12-25T13:36:56.172Z,13.60
2022-12-25T13:39:25.006Z,16.27
2022-12-25T13:42:06.163Z,12.75
2022-12-25T13:44:45.096Z,11.00
2022-12-25T13:47:29.745Z,11.23
2022-12-25T13:49:58.380Z,11.32
2022-12-25T13:52:35.598Z,13.00
2022-12-25T13:55:10.673Z,13.25
2022-12-25T13:57:40.665Z,12.40
2022-12-25T14:00:18.043Z,11.95
2022-12-25T14:02:45.784Z,11.65
2022-12-25T14:05:41.705Z,11.17
2022-12-25T14:08:19.195Z,15.77
2022-12-25T14:10:50.332Z,16.45
2022-12-25T14:13:19.397Z,13.25
2022-12-25T14:15:47.959Z,15.57
2022-12-25T14:18:16.383Z,15.07
2022-12-25T14:20:57.951Z,15.18
2022-12-25T14:23:25.325Z,14.77
2022-12-25T14:25:52.435Z,13.52
2022-12-25T14:28:24.663Z,13.52
2022-12-25T14:30:51.870Z,15.60
2022-12-25T14:33:22.612Z,15.25
2022-12-25T14:35:50.377Z,15.00
2022-12-25T14:38:27.647Z,15.60
2022-12-25T14:41:07.555Z,13.75
2022-12-25T14:43:36.300Z,11.07
2022-12-25T14:46:06.604Z,12.85
2022-12-25T14:48:33.839Z,11.50
2022-12-25T14:51:08.986Z,13.50
2022-12-25T14:53:47.591Z,11.50
2022-12-25T14:56:20.225Z,11.90
2022-12-25T14:58:59.074Z,13.05
2022-12-25T15:01:31.760Z,13.90
2022-12-25T15:04:10.487Z,11.90
2022-12-25T15:06:40.773Z,14.85
2022-12-25T15:09:18.992Z,15.77
2022-12-25T15:11:50.803Z,16.88
2022-12-25T15:14:17.655Z,16.63
2022-12-25T15:16:49.632Z,13.60
2022-12-25T15:19:29.259Z,16.35
2022-12-25T15:21:59.614Z,17.20
2022-12-25T15:24:26.373Z,12.27
2022-12-25T15:26:55.195Z,15.55
2022-12-25T15:29:44.510Z,15.57
2022-12-25T15:32:19.951Z,15.40
2022-12-25T15:34:49.687Z,13.83
2022-12-25T15:37:18.245Z,14.70
2022-12-25T15:39:45.710Z,11.27
2022-12-25T15:42:19.570Z,14.63
2022-12-25T15:44:46.509Z,13.95
2022-12-25T15:47:15.567Z,15.97
2022-12-25T15:49:43.062Z,14.95
2022-12-25T15:52:17.067Z,14.63
2022-12-25T15:54:43.945Z,13.82
2022-12-25T15:57:22.298Z,13.25
2022-12-25T15:59:49.110Z,12.77
2022-12-25T16:02:18.860Z,12.40
2022-12-25T16:04:45.916Z,12.02
2022-12-25T16:07:18.801Z,11.48
2022-12-25T16:09:45.975Z,13.68
2022-12-25T16:12:12.713Z,13.37
2022-12-25T16:14:39.648Z,12.52
2022-12-25T16:17:06.621Z,13.20
2022-12-25T16:19:33.417Z,12.40
2022-12-25T16:22:00.140Z,17.83
2022-12-25T16:24:26.916Z,12.63
2022-12-25T16:26:53.624Z,17.33
2022-12-25T16:29:20.381Z,16.23
2022-12-25T16:31:47.155Z,21.50
2022-12-25T16:34:13.891Z,24.48
2022-12-25T16:36:40.587Z,19.00
2022-12-25T16:39:07.348Z,22.52
2022-12-25T16:41:34.784Z,18.40
2022-12-25T16:44:12.108Z,17.30
2022-12-25T16:46:40.286Z,17.27
2022-12-25T16:49:07.182Z,15.47
2022-12-25T16:51:34.084Z,16.63
2022-12-25T16:54:00.874Z,13.98
2022-12-25T16:56:28.592Z,12.73
2022-12-25T16:58:57.427Z,12.93
2022-12-25T17:01:25.302Z,15.53
2022-12-25T17:03:52.628Z,15.88
2022-12-25T17:06:25.815Z,13.65
2022-12-25T17:08:55.859Z,19.02
2022-12-25T17:11:27.250Z,18.02
2022-12-25T17:13:54.483Z,18.47
2022-12-25T17:16:24.866Z,15.82
2022-12-25T17:18:56.348Z,14.35
2022-12-25T17:21:24.127Z,17.05
2022-12-25T17:23:50.897Z,13.82
2022-12-25T17:26:17.737Z,12.47
2022-12-25T17:28:44.528Z,16.77
2022-12-25T17:31:13.352Z,14.85
2022-12-25T17:33:41.732Z,17.88
2022-12-25T17:36:12.124Z,19.02
2022-12-25T17:38:39.538Z,17.43
2022-12-25T17:41:08.288Z,18.90
2022-12-25T17:43:37.312Z,34.40
2022-12-25T17:46:25.685Z,41.53
2022-12-25T17:48:54.517Z,18.05
2022-12-25T17:51:24.267Z,21.33
2022-12-25T17:53:56.516Z,21.27
2022-12-25T17:56:23.746Z,20.35
2022-12-25T17:58:55.804Z,19.40
2022-12-25T18:01:23.990Z,40.20
2022-12-25T18:03:51.374Z,26.43
2022-12-25T18:06:21.266Z,44.55
2022-12-25T18:08:49.336Z,26.33
2022-12-25T18:11:19.437Z,42.55
2022-12-25T18:13:49.798Z,92.03
2022-12-25T18:16:17.903Z,28.33
2022-12-25T18:18:51.391Z,38.78
2022-12-25T18:21:19.674Z,21.88
2022-12-25T18:23:46.685Z,21.17
2022-12-25T18:26:13.896Z,43.03
2022-12-25T18:28:42.536Z,22.13
2022-12-25T18:31:35.999Z,52.50
2022-12-25T18:34:03.262Z,34.13
2022-12-25T18:36:30.894Z,102.78
2022-12-25T18:38:58.875Z,24.65
2022-12-25T18:41:27.918Z,22.27
2022-12-25T18:43:55.797Z,66.88
2022-12-25T18:46:27.625Z,65.32
2022-12-25T18:48:56.334Z,36.38
2022-12-25T18:51:23.722Z,46.85
2022-12-25T18:53:51.205Z,63.97
2022-12-25T18:56:20.239Z,50.47
2022-12-25T18:58:47.858Z,23.13
2022-12-25T19:01:15.945Z,33.40
2022-12-25T19:03:43.885Z,32.30
2022-12-25T19:06:20.597Z,37.63
2022-12-25T19:08:47.672Z,75.63
2022-12-25T19:11:15.276Z,28.15
2022-12-25T19:13:42.308Z,35.58
2022-12-25T19:16:09.636Z,27.05
2022-12-25T19:18:36.795Z,21.00
2022-12-25T19:21:05.395Z,42.10
2022-12-25T19:23:32.355Z,55.63
2022-12-25T19:25:59.314Z,82.22
2022-12-25T19:28:26.389Z,46.10
2022-12-25T19:30:54.238Z,36.27
2022-12-25T19:33:22.764Z,38.42
2022-12-25T19:35:49.998Z,26.58
2022-12-25T19:38:16.862Z,37.92
2022-12-25T19:41:00.060Z,36.08
2022-12-25T19:43:32.940Z,29.23
2022-12-25T19:46:01.664Z,27.55
2022-12-25T19:48:29.420Z,26.20
2022-12-25T19:50:56.242Z,33.72
2022-12-25T19:53:26.093Z,40.63
2022-12-25T19:55:54.027Z,41.63
2022-12-25T19:58:21.918Z,55.50
2022-12-25T20:01:07.768Z,23.15
2022-12-25T20:03:38.816Z,26.65
2022-12-25T20:06:11.759Z,35.47
2022-12-25T20:08:38.513Z,30.40
2022-12-25T20:11:05.242Z,30.45
2022-12-25T20:13:31.914Z,30.45
2022-12-25T20:16:02.006Z,28.02
2022-12-25T20:18:29.052Z,26.88
2022-12-25T20:21:03.906Z,26.87
2022-12-25T20:23:31.151Z,37.13
2022-12-25T20:26:04.319Z,34.40
2022-12-25T20:28:32.844Z,28.73
2022-12-25T20:30:59.572Z,26.90
2022-12-25T20:33:26.273Z,33.10
2022-12-25T20:35:53.011Z,29.90
2022-12-25T20:38:19.761Z,26.42
2022-12-25T20:41:24.329Z,31.17
2022-12-25T20:43:33.535Z,19.00
2022-12-25T20:46:00.515Z,17.70
2022-12-25T20:48:27.448Z,20.92
2022-12-25T20:50:54.448Z,20.40
2022-12-25T20:53:21.238Z,19.30
2022-12-25T20:55:50.263Z,19.90
2022-12-25T20:58:17.773Z,22.17
2022-12-25T21:00:45.103Z,21.85
2022-12-25T21:03:12.163Z,19.48
2022-12-25T21:05:49.812Z,29.92
2022-12-25T21:08:21.222Z,35.20
2022-12-25T21:10:52.296Z,30.50
2022-12-25T21:13:24.367Z,32.70
2022-12-25T21:15:52.049Z,25.42
2022-12-25T21:18:22.723Z,20.02
2022-12-25T21:20:52.299Z,21.98
2022-12-25T21:23:19.841Z,20.27
2022-12-25T21:25:47.385Z,18.55
2022-12-25T21:28:14.806Z,22.02
2022-12-25T21:30:41.570Z,17.92
2022-12-25T21:33:28.291Z,17.95
2022-12-25T21:35:55.053Z,16.43
2022-12-25T21:38:21.835Z,19.58
2022-12-25T21:40:48.554Z,18.40
2022-12-25T21:43:15.381Z,19.30
2022-12-25T21:45:42.329Z,20.52
2022-12-25T21:48:09.160Z,16.63
2022-12-25T21:50:55.557Z,18.05
2022-12-25T21:53:22.312Z,19.27
2022-12-25T21:56:02.454Z,18.05
2022-12-25T21:58:29.357Z,19.40
2022-12-25T22:00:56.274Z,19.20
2022-12-25T22:03:23.996Z,21.73
2022-12-25T22:06:09.403Z,21.23
2022-12-25T22:08:36.140Z,16.67
2022-12-25T22:11:04.208Z,16.90
2022-12-25T22:13:51.300Z,20.03
2022-12-25T22:16:36.560Z,16.05
2022-12-25T22:19:22.164Z,18.13
2022-12-25T22:21:48.848Z,18.35
2022-12-25T22:24:15.631Z,18.33
2022-12-25T22:26:44.530Z,19.30
2022-12-25T22:29:11.236Z,18.10
2022-12-25T22:31:42.745Z,17.83
2022-12-25T22:34:15.741Z,15.32
2022-12-25T22:36:42.597Z,16.02
2022-12-25T22:39:09.367Z,14.13
2022-12-25T22:41:36.115Z,17.02
2022-12-25T22:44:17.017Z,13.27
2022-12-25T22:46:44.864Z,11.48
2022-12-25T22:49:11.713Z,13.60
2022-12-25T22:51:38.494Z,13.40
2022-12-25T22:54:05.236Z,15.45
2022-12-25T22:56:31.976Z,14.65
2022-12-25T22:58:58.705Z,15.02
2022-12-25T23:01:26.570Z,13.85
2022-12-25T23:03:54.633Z,13.10
2022-12-25T23:06:21.631Z,13.50
2022-12-25T23:08:49.105Z,13.38
2022-12-25T23:11:17.542Z,13.23
2022-12-25T23:14:03.279Z,12.35
2022-12-25T23:16:30.612Z,12.73
2022-12-25T23:19:16.179Z,12.88
2022-12-25T23:22:02.230Z,12.85
2022-12-25T23:24:47.563Z,12.45
2022-12-25T23:27:14.374Z,12.82
2022-12-25T23:29:41.489Z,10.83
2022-12-25T23:32:24.562Z,11.48
2022-12-25T23:34:52.273Z,13.25
2022-12-25T23:37:19.410Z,13.45
2022-12-25T23:39:46.752Z,9.90
2022-12-25T23:42:13.809Z,11.27
2022-12-25T23:44:40.526Z,10.55
2022-12-25T23:47:07.340Z,12.73
2022-12-25T23:49:34.168Z,13.30
2022-12-25T23:52:00.913Z,11.38
2022-12-25T23:54:29.960Z,12.30
2022-12-25T23:56:58.328Z,14.15
2022-12-25T23:59:27.475Z,13.43
